Chulafinnee, Alabama
Current Conditions -  °F | °C
As of 11:53 PM on Sunday 21 Dec 2014 (Local Time) from KANB Reporting Station
Overcast Overcast  
Wind Chill: 50°   Ceiling: 1200
Heat Index: 50°   Visibility: 9mi
Dew Point: 45°   Wind: 7mph
Humidity: 83%   Direction: 80°E
Pressure: 30.05"   Gusts: NA
Location:  33.6126°N, 85.6035°W
Report Text: KANB 220553Z AUTO 08006KT 9SM OVC012 10/07 A3005 RMK AO2 SLP178 T01000072 10111 20100 401220067 58009
Loading
Personal Weather Stations






























Interactive Weather Map New forecast layout! Learn more

10-Day Weather Forecast

Advertisements
Track Severe Weather on mobile